sensor_id;sensor_type;location;lat;lon;timestamp;temperature;humidity
70051;SHT30;57391;51.306;22.680;2023-08-06T00:01:30;21.03;79.11
70051;SHT30;57391;51.306;22.680;2023-08-06T00:03:57;21.01;79.00
70051;SHT30;57391;51.306;22.680;2023-08-06T00:06:25;21.00;78.86
70051;SHT30;57391;51.306;22.680;2023-08-06T00:08:52;20.95;78.90
70051;SHT30;57391;51.306;22.680;2023-08-06T00:11:19;20.91;78.97
70051;SHT30;57391;51.306;22.680;2023-08-06T00:13:46;20.88;79.01
70051;SHT30;57391;51.306;22.680;2023-08-06T00:16:12;20.87;79.09
70051;SHT30;57391;51.306;22.680;2023-08-06T00:18:40;20.85;79.11
70051;SHT30;57391;51.306;22.680;2023-08-06T00:21:07;20.84;79.10
70051;SHT30;57391;51.306;22.680;2023-08-06T00:23:34;20.84;79.20
70051;SHT30;57391;51.306;22.680;2023-08-06T00:26:01;20.83;79.22
70051;SHT30;57391;51.306;22.680;2023-08-06T00:28:29;20.83;79.21
70051;SHT30;57391;51.306;22.680;2023-08-06T00:30:56;20.82;79.28
70051;SHT30;57391;51.306;22.680;2023-08-06T00:33:24;20.80;79.37
70051;SHT30;57391;51.306;22.680;2023-08-06T00:35:52;20.80;79.41
70051;SHT30;57391;51.306;22.680;2023-08-06T00:38:19;20.79;79.43
70051;SHT30;57391;51.306;22.680;2023-08-06T00:40:46;20.79;79.40
70051;SHT30;57391;51.306;22.680;2023-08-06T00:43:14;20.78;79.40
70051;SHT30;57391;51.306;22.680;2023-08-06T00:45:43;20.79;79.40
70051;SHT30;57391;51.306;22.680;2023-08-06T00:48:11;20.79;79.32
70051;SHT30;57391;51.306;22.680;2023-08-06T00:50:38;20.77;79.28
70051;SHT30;57391;51.306;22.680;2023-08-06T00:53:06;20.75;79.24
70051;SHT30;57391;51.306;22.680;2023-08-06T00:55:33;20.72;79.34
70051;SHT30;57391;51.306;22.680;2023-08-06T00:58:04;20.67;79.55
70051;SHT30;57391;51.306;22.680;2023-08-06T01:00:32;20.65;79.59
70051;SHT30;57391;51.306;22.680;2023-08-06T01:02:59;20.63;79.63
70051;SHT30;57391;51.306;22.680;2023-08-06T01:05:26;20.61;79.69
70051;SHT30;57391;51.306;22.680;2023-08-06T01:13:42;20.56;79.96
70051;SHT30;57391;51.306;22.680;2023-08-06T01:16:17;20.56;79.98
70051;SHT30;57391;51.306;22.680;2023-08-06T01:18:46;20.54;80.01
70051;SHT30;57391;51.306;22.680;2023-08-06T01:21:16;20.53;80.07
70051;SHT30;57391;51.306;22.680;2023-08-06T01:23:44;20.52;80.14
70051;SHT30;57391;51.306;22.680;2023-08-06T01:31:54;20.50;80.19
70051;SHT30;57391;51.306;22.680;2023-08-06T01:34:24;20.50;80.20
70051;SHT30;57391;51.306;22.680;2023-08-06T01:36:55;20.49;80.20
70051;SHT30;57391;51.306;22.680;2023-08-06T01:39:24;20.48;80.25
70051;SHT30;57391;51.306;22.680;2023-08-06T01:41:50;20.48;80.26
70051;SHT30;57391;51.306;22.680;2023-08-06T01:44:17;20.47;80.30
70051;SHT30;57391;51.306;22.680;2023-08-06T01:46:45;20.46;80.31
70051;SHT30;57391;51.306;22.680;2023-08-06T01:49:11;20.46;80.27
70051;SHT30;57391;51.306;22.680;2023-08-06T01:51:38;20.44;80.32
70051;SHT30;57391;51.306;22.680;2023-08-06T01:54:05;20.43;80.39
70051;SHT30;57391;51.306;22.680;2023-08-06T01:56:32;20.42;80.40
70051;SHT30;57391;51.306;22.680;2023-08-06T01:58:59;20.42;80.39
70051;SHT30;57391;51.306;22.680;2023-08-06T02:01:26;20.40;80.40
70051;SHT30;57391;51.306;22.680;2023-08-06T02:03:53;20.37;80.41
70051;SHT30;57391;51.306;22.680;2023-08-06T02:06:19;20.34;80.54
70051;SHT30;57391;51.306;22.680;2023-08-06T02:08:46;20.29;80.67
70051;SHT30;57391;51.306;22.680;2023-08-06T02:11:15;20.25;80.87
70051;SHT30;57391;51.306;22.680;2023-08-06T02:13:42;20.20;81.03
70051;SHT30;57391;51.306;22.680;2023-08-06T02:16:09;20.17;81.15
70051;SHT30;57391;51.306;22.680;2023-08-06T02:18:36;20.15;81.21
70051;SHT30;57391;51.306;22.680;2023-08-06T02:21:02;20.14;81.30
70051;SHT30;57391;51.306;22.680;2023-08-06T02:23:29;20.12;81.28
70051;SHT30;57391;51.306;22.680;2023-08-06T02:26:00;20.12;81.29
70051;SHT30;57391;51.306;22.680;2023-08-06T02:28:29;20.10;81.26
70051;SHT30;57391;51.306;22.680;2023-08-06T02:30:57;20.09;81.28
70051;SHT30;57391;51.306;22.680;2023-08-06T02:33:24;20.06;81.32
70051;SHT30;57391;51.306;22.680;2023-08-06T02:35:51;20.04;81.35
70051;SHT30;57391;51.306;22.680;2023-08-06T02:38:25;20.03;81.34
70051;SHT30;57391;51.306;22.680;2023-08-06T02:40:52;20.01;81.33
70051;SHT30;57391;51.306;22.680;2023-08-06T02:43:19;20.00;81.31
70051;SHT30;57391;51.306;22.680;2023-08-06T02:45:46;19.98;81.33
70051;SHT30;57391;51.306;22.680;2023-08-06T02:48:13;19.96;81.32
70051;SHT30;57391;51.306;22.680;2023-08-06T02:50:40;19.94;81.36
70051;SHT30;57391;51.306;22.680;2023-08-06T02:53:08;19.90;81.40
70051;SHT30;57391;51.306;22.680;2023-08-06T02:55:35;19.88;81.40
70051;SHT30;57391;51.306;22.680;2023-08-06T02:58:05;19.83;81.43
70051;SHT30;57391;51.306;22.680;2023-08-06T03:00:33;19.81;81.48
70051;SHT30;57391;51.306;22.680;2023-08-06T03:03:01;19.78;81.50
70051;SHT30;57391;51.306;22.680;2023-08-06T03:05:38;19.75;81.50
70051;SHT30;57391;51.306;22.680;2023-08-06T03:08:05;19.72;81.53
70051;SHT30;57391;51.306;22.680;2023-08-06T03:10:32;19.69;81.55
70051;SHT30;57391;51.306;22.680;2023-08-06T03:13:01;19.68;81.59
70051;SHT30;57391;51.306;22.680;2023-08-06T03:15:28;19.67;81.60
70051;SHT30;57391;51.306;22.680;2023-08-06T03:17:55;19.67;81.58
70051;SHT30;57391;51.306;22.680;2023-08-06T03:20:23;19.68;81.55
70051;SHT30;57391;51.306;22.680;2023-08-06T03:22:51;19.69;81.50
70051;SHT30;57391;51.306;22.680;2023-08-06T03:25:18;19.71;81.50
70051;SHT30;57391;51.306;22.680;2023-08-06T03:27:47;19.70;81.50
70051;SHT30;57391;51.306;22.680;2023-08-06T03:30:14;19.74;81.48
70051;SHT30;57391;51.306;22.680;2023-08-06T03:32:41;19.79;81.42
70051;SHT30;57391;51.306;22.680;2023-08-06T03:35:08;19.84;81.31
70051;SHT30;57391;51.306;22.680;2023-08-06T03:37:35;19.90;81.17
70051;SHT30;57391;51.306;22.680;2023-08-06T03:40:02;19.97;80.94
70051;SHT30;57391;51.306;22.680;2023-08-06T03:42:29;20.05;80.61
70051;SHT30;57391;51.306;22.680;2023-08-06T03:44:56;20.13;80.29
70051;SHT30;57391;51.306;22.680;2023-08-06T03:47:23;20.22;80.06
70051;SHT30;57391;51.306;22.680;2023-08-06T03:49:50;20.30;79.82
70051;SHT30;57391;51.306;22.680;2023-08-06T03:52:17;20.40;79.60
70051;SHT30;57391;51.306;22.680;2023-08-06T03:54:44;20.50;79.43
70051;SHT30;57391;51.306;22.680;2023-08-06T03:57:11;20.77;78.96
70051;SHT30;57391;51.306;22.680;2023-08-06T03:59:38;21.63;77.70
70051;SHT30;57391;51.306;22.680;2023-08-06T04:02:06;22.72;75.50
70051;SHT30;57391;51.306;22.680;2023-08-06T04:04:33;23.74;72.95
70051;SHT30;57391;51.306;22.680;2023-08-06T04:07:00;24.66;70.98
70051;SHT30;57391;51.306;22.680;2023-08-06T04:09:28;25.58;68.79
70051;SHT30;57391;51.306;22.680;2023-08-06T04:11:55;26.47;65.80
70051;SHT30;57391;51.306;22.680;2023-08-06T04:14:26;27.22;63.22
70051;SHT30;57391;51.306;22.680;2023-08-06T04:16:53;27.86;60.94
70051;SHT30;57391;51.306;22.680;2023-08-06T04:19:20;28.35;58.76
70051;SHT30;57391;51.306;22.680;2023-08-06T04:21:46;28.78;57.29
70051;SHT30;57391;51.306;22.680;2023-08-06T04:24:14;29.22;56.25
70051;SHT30;57391;51.306;22.680;2023-08-06T04:26:40;29.91;55.27
70051;SHT30;57391;51.306;22.680;2023-08-06T04:29:07;30.74;53.83
70051;SHT30;57391;51.306;22.680;2023-08-06T04:31:34;31.47;51.91
70051;SHT30;57391;51.306;22.680;2023-08-06T04:34:01;32.07;49.88
70051;SHT30;57391;51.306;22.680;2023-08-06T04:36:29;32.59;49.30
70051;SHT30;57391;51.306;22.680;2023-08-06T04:38:56;33.18;47.82
70051;SHT30;57391;51.306;22.680;2023-08-06T04:41:22;33.54;45.82
70051;SHT30;57391;51.306;22.680;2023-08-06T04:43:49;33.65;44.74
70051;SHT30;57391;51.306;22.680;2023-08-06T04:46:16;33.71;44.19
70051;SHT30;57391;51.306;22.680;2023-08-06T04:48:43;33.95;44.44
70051;SHT30;57391;51.306;22.680;2023-08-06T04:51:10;34.29;42.76
70051;SHT30;57391;51.306;22.680;2023-08-06T04:53:37;34.44;42.50
70051;SHT30;57391;51.306;22.680;2023-08-06T04:56:04;34.78;42.22
70051;SHT30;57391;51.306;22.680;2023-08-06T04:58:30;35.02;40.89
70051;SHT30;57391;51.306;22.680;2023-08-06T05:00:57;35.09;40.82
70051;SHT30;57391;51.306;22.680;2023-08-06T05:03:24;35.09;40.29
70051;SHT30;57391;51.306;22.680;2023-08-06T05:05:51;34.61;41.23
70051;SHT30;57391;51.306;22.680;2023-08-06T05:08:18;33.68;42.72
70051;SHT30;57391;51.306;22.680;2023-08-06T05:10:45;32.47;43.60
70051;SHT30;57391;51.306;22.680;2023-08-06T05:13:12;31.37;45.70
70051;SHT30;57391;51.306;22.680;2023-08-06T05:15:39;30.78;46.84
70051;SHT30;57391;51.306;22.680;2023-08-06T05:18:09;30.68;47.50
70051;SHT30;57391;51.306;22.680;2023-08-06T05:20:36;30.72;47.87
70051;SHT30;57391;51.306;22.680;2023-08-06T05:23:04;30.33;47.97
70051;SHT30;57391;51.306;22.680;2023-08-06T05:25:30;29.67;49.34
70051;SHT30;57391;51.306;22.680;2023-08-06T05:27:57;29.06;50.36
70051;SHT30;57391;51.306;22.680;2023-08-06T05:30:24;28.53;51.48
70051;SHT30;57391;51.306;22.680;2023-08-06T05:32:51;28.40;52.42
70051;SHT30;57391;51.306;22.680;2023-08-06T05:35:18;29.12;51.41
70051;SHT30;57391;51.306;22.680;2023-08-06T05:37:45;29.99;49.44
70051;SHT30;57391;51.306;22.680;2023-08-06T05:40:12;30.60;48.52
70051;SHT30;57391;51.306;22.680;2023-08-06T05:42:40;30.72;47.90
70051;SHT30;57391;51.306;22.680;2023-08-06T05:45:07;30.12;48.82
70051;SHT30;57391;51.306;22.680;2023-08-06T05:47:36;29.35;50.10
70051;SHT30;57391;51.306;22.680;2023-08-06T05:50:03;28.61;51.73
70051;SHT30;57391;51.306;22.680;2023-08-06T05:52:30;28.09;53.10
70051;SHT30;57391;51.306;22.680;2023-08-06T05:54:57;27.77;54.29
70051;SHT30;57391;51.306;22.680;2023-08-06T05:57:24;27.44;54.63
70051;SHT30;57391;51.306;22.680;2023-08-06T05:59:51;27.07;55.54
70051;SHT30;57391;51.306;22.680;2023-08-06T06:02:17;26.74;56.31
70051;SHT30;57391;51.306;22.680;2023-08-06T06:04:45;26.52;57.18
70051;SHT30;57391;51.306;22.680;2023-08-06T06:07:12;26.31;57.94
70051;SHT30;57391;51.306;22.680;2023-08-06T06:09:38;26.18;58.29
70051;SHT30;57391;51.306;22.680;2023-08-06T06:12:06;26.05;58.51
70051;SHT30;57391;51.306;22.680;2023-08-06T06:14:33;25.90;59.02
70051;SHT30;57391;51.306;22.680;2023-08-06T06:17:00;25.77;59.30
70051;SHT30;57391;51.306;22.680;2023-08-06T06:19:27;25.67;59.59
70051;SHT30;57391;51.306;22.680;2023-08-06T06:21:54;25.62;59.90
70051;SHT30;57391;51.306;22.680;2023-08-06T06:24:24;25.63;59.59
70051;SHT30;57391;51.306;22.680;2023-08-06T06:26:51;25.69;59.52
70051;SHT30;57391;51.306;22.680;2023-08-06T06:29:18;25.80;59.40
70051;SHT30;57391;51.306;22.680;2023-08-06T06:31:45;25.90;58.67
70051;SHT30;57391;51.306;22.680;2023-08-06T06:34:11;26.04;58.72
70051;SHT30;57391;51.306;22.680;2023-08-06T06:36:38;26.16;58.03
70051;SHT30;57391;51.306;22.680;2023-08-06T06:39:06;26.30;57.94
70051;SHT30;57391;51.306;22.680;2023-08-06T06:41:32;26.41;57.78
70051;SHT30;57391;51.306;22.680;2023-08-06T06:44:05;26.47;57.57
70051;SHT30;57391;51.306;22.680;2023-08-06T06:46:32;26.57;57.95
70051;SHT30;57391;51.306;22.680;2023-08-06T06:48:59;26.67;57.92
70051;SHT30;57391;51.306;22.680;2023-08-06T06:51:26;26.68;58.18
70051;SHT30;57391;51.306;22.680;2023-08-06T06:53:55;26.69;58.31
70051;SHT30;57391;51.306;22.680;2023-08-06T06:56:22;26.71;58.15
70051;SHT30;57391;51.306;22.680;2023-08-06T06:58:49;26.75;57.98
70051;SHT30;57391;51.306;22.680;2023-08-06T07:01:16;26.77;58.13
70051;SHT30;57391;51.306;22.680;2023-08-06T07:03:43;26.84;57.56
70051;SHT30;57391;51.306;22.680;2023-08-06T07:06:10;26.99;57.70
70051;SHT30;57391;51.306;22.680;2023-08-06T07:08:38;27.25;57.51
70051;SHT30;57391;51.306;22.680;2023-08-06T07:11:06;27.54;56.80
70051;SHT30;57391;51.306;22.680;2023-08-06T07:13:33;27.84;56.39
70051;SHT30;57391;51.306;22.680;2023-08-06T07:16:01;28.09;55.37
70051;SHT30;57391;51.306;22.680;2023-08-06T07:18:28;28.28;55.19
70051;SHT30;57391;51.306;22.680;2023-08-06T07:20:56;28.50;54.14
70051;SHT30;57391;51.306;22.680;2023-08-06T07:23:23;28.66;53.68
70051;SHT30;57391;51.306;22.680;2023-08-06T07:25:52;28.79;52.76
70051;SHT30;57391;51.306;22.680;2023-08-06T07:28:18;28.91;52.78
70051;SHT30;57391;51.306;22.680;2023-08-06T07:30:46;29.15;52.38
70051;SHT30;57391;51.306;22.680;2023-08-06T07:33:13;29.37;52.13
70051;SHT30;57391;51.306;22.680;2023-08-06T07:35:40;29.51;51.29
70051;SHT30;57391;51.306;22.680;2023-08-06T07:38:07;29.61;50.67
70051;SHT30;57391;51.306;22.680;2023-08-06T07:40:38;29.68;50.32
70051;SHT30;57391;51.306;22.680;2023-08-06T07:43:05;29.63;50.74
70051;SHT30;57391;51.306;22.680;2023-08-06T07:45:32;29.50;50.78
70051;SHT30;57391;51.306;22.680;2023-08-06T07:48:03;29.27;50.76
70051;SHT30;57391;51.306;22.680;2023-08-06T07:50:31;29.05;50.87
70051;SHT30;57391;51.306;22.680;2023-08-06T07:52:58;28.88;51.64
70051;SHT30;57391;51.306;22.680;2023-08-06T07:55:25;28.80;51.88
70051;SHT30;57391;51.306;22.680;2023-08-06T07:57:53;28.78;52.53
70051;SHT30;57391;51.306;22.680;2023-08-06T08:00:20;28.89;51.66
70051;SHT30;57391;51.306;22.680;2023-08-06T08:02:47;29.09;51.80
70051;SHT30;57391;51.306;22.680;2023-08-06T08:05:14;29.31;51.07
70051;SHT30;57391;51.306;22.680;2023-08-06T08:07:42;29.51;50.62
70051;SHT30;57391;51.306;22.680;2023-08-06T08:10:09;29.67;50.03
70051;SHT30;57391;51.306;22.680;2023-08-06T08:12:36;29.84;49.66
70051;SHT30;57391;51.306;22.680;2023-08-06T08:15:03;30.00;49.43
70051;SHT30;57391;51.306;22.680;2023-08-06T08:17:31;30.19;49.75
70051;SHT30;57391;51.306;22.680;2023-08-06T08:19:58;30.33;48.32
70051;SHT30;57391;51.306;22.680;2023-08-06T08:22:25;30.44;48.40
70051;SHT30;57391;51.306;22.680;2023-08-06T08:24:52;30.51;47.91
70051;SHT30;57391;51.306;22.680;2023-08-06T08:27:19;30.58;48.26
70051;SHT30;57391;51.306;22.680;2023-08-06T08:29:45;30.75;49.11
70051;SHT30;57391;51.306;22.680;2023-08-06T08:32:12;30.90;47.79
70051;SHT30;57391;51.306;22.680;2023-08-06T08:34:39;30.90;47.14
70051;SHT30;57391;51.306;22.680;2023-08-06T08:37:06;30.81;47.35
70051;SHT30;57391;51.306;22.680;2023-08-06T08:39:33;30.79;47.56
70051;SHT30;57391;51.306;22.680;2023-08-06T08:42:00;30.83;47.59
70051;SHT30;57391;51.306;22.680;2023-08-06T08:44:30;30.83;46.51
70051;SHT30;57391;51.306;22.680;2023-08-06T08:46:58;30.84;46.81
70051;SHT30;57391;51.306;22.680;2023-08-06T08:49:26;30.86;46.78
70051;SHT30;57391;51.306;22.680;2023-08-06T08:51:55;30.99;47.61
70051;SHT30;57391;51.306;22.680;2023-08-06T08:54:25;31.15;47.29
70051;SHT30;57391;51.306;22.680;2023-08-06T08:56:52;31.19;45.50
70051;SHT30;57391;51.306;22.680;2023-08-06T08:59:21;31.09;44.94
70051;SHT30;57391;51.306;22.680;2023-08-06T09:01:48;30.98;45.79
70051;SHT30;57391;51.306;22.680;2023-08-06T09:04:17;30.95;46.55
70051;SHT30;57391;51.306;22.680;2023-08-06T09:06:50;30.90;46.46
70051;SHT30;57391;51.306;22.680;2023-08-06T09:09:30;30.90;47.38
70051;SHT30;57391;51.306;22.680;2023-08-06T09:12:00;30.90;46.13
70051;SHT30;57391;51.306;22.680;2023-08-06T09:14:37;30.91;46.39
70051;SHT30;57391;51.306;22.680;2023-08-06T09:17:04;30.96;46.29
70051;SHT30;57391;51.306;22.680;2023-08-06T09:19:32;30.99;45.65
70051;SHT30;57391;51.306;22.680;2023-08-06T09:21:59;30.98;45.75
70051;SHT30;57391;51.306;22.680;2023-08-06T09:24:26;31.03;45.64
70051;SHT30;57391;51.306;22.680;2023-08-06T09:26:54;31.06;45.98
70051;SHT30;57391;51.306;22.680;2023-08-06T09:29:21;31.09;45.89
70051;SHT30;57391;51.306;22.680;2023-08-06T09:31:48;31.15;46.37
70051;SHT30;57391;51.306;22.680;2023-08-06T09:34:22;31.28;45.79
70051;SHT30;57391;51.306;22.680;2023-08-06T09:39:21;31.29;46.20
70051;SHT30;57391;51.306;22.680;2023-08-06T09:41:57;31.35;46.03
70051;SHT30;57391;51.306;22.680;2023-08-06T09:44:27;31.40;45.92
70051;SHT30;57391;51.306;22.680;2023-08-06T09:46:59;31.43;45.88
70051;SHT30;57391;51.306;22.680;2023-08-06T09:51:59;31.55;45.54
70051;SHT30;57391;51.306;22.680;2023-08-06T09:54:27;31.58;44.71
70051;SHT30;57391;51.306;22.680;2023-08-06T09:56:56;31.48;44.64
70051;SHT30;57391;51.306;22.680;2023-08-06T09:59:23;31.41;45.22
70051;SHT30;57391;51.306;22.680;2023-08-06T10:01:51;31.45;45.60
70051;SHT30;57391;51.306;22.680;2023-08-06T10:04:18;31.45;45.32
70051;SHT30;57391;51.306;22.680;2023-08-06T10:06:47;31.51;45.99
70051;SHT30;57391;51.306;22.680;2023-08-06T10:09:14;31.56;45.21
70051;SHT30;57391;51.306;22.680;2023-08-06T10:11:44;31.52;45.11
70051;SHT30;57391;51.306;22.680;2023-08-06T10:14:21;31.48;44.94
70051;SHT30;57391;51.306;22.680;2023-08-06T10:16:53;31.45;45.66
70051;SHT30;57391;51.306;22.680;2023-08-06T10:19:23;31.50;45.94
70051;SHT30;57391;51.306;22.680;2023-08-06T10:22:10;31.61;45.89
70051;SHT30;57391;51.306;22.680;2023-08-06T10:24:53;31.72;44.69
70051;SHT30;57391;51.306;22.680;2023-08-06T10:27:28;31.83;44.89
70051;SHT30;57391;51.306;22.680;2023-08-06T10:33:01;31.86;44.54
70051;SHT30;57391;51.306;22.680;2023-08-06T10:38:16;31.79;44.58
70051;SHT30;57391;51.306;22.680;2023-08-06T10:43:26;31.69;44.05
70051;SHT30;57391;51.306;22.680;2023-08-06T10:45:55;31.59;44.65
70051;SHT30;57391;51.306;22.680;2023-08-06T10:51:20;31.30;45.08
70051;SHT30;57391;51.306;22.680;2023-08-06T10:53:48;31.23;45.98
70051;SHT30;57391;51.306;22.680;2023-08-06T10:56:17;31.31;46.29
70051;SHT30;57391;51.306;22.680;2023-08-06T10:58:45;31.41;46.55
70051;SHT30;57391;51.306;22.680;2023-08-06T11:01:14;31.47;46.24
70051;SHT30;57391;51.306;22.680;2023-08-06T11:03:42;31.46;46.12
70051;SHT30;57391;51.306;22.680;2023-08-06T11:06:16;31.35;46.33
70051;SHT30;57391;51.306;22.680;2023-08-06T11:08:49;31.28;46.61
70051;SHT30;57391;51.306;22.680;2023-08-06T11:11:19;31.23;46.69
70051;SHT30;57391;51.306;22.680;2023-08-06T11:13:49;31.27;47.03
70051;SHT30;57391;51.306;22.680;2023-08-06T11:16:22;31.33;46.52
70051;SHT30;57391;51.306;22.680;2023-08-06T11:18:53;31.31;46.04
70051;SHT30;57391;51.306;22.680;2023-08-06T11:21:22;31.28;46.06
70051;SHT30;57391;51.306;22.680;2023-08-06T11:23:51;31.28;45.65
70051;SHT30;57391;51.306;22.680;2023-08-06T11:26:20;31.24;45.58
70051;SHT30;57391;51.306;22.680;2023-08-06T11:28:49;31.23;45.70
70051;SHT30;57391;51.306;22.680;2023-08-06T11:31:20;31.24;45.53
70051;SHT30;57391;51.306;22.680;2023-08-06T11:33:48;31.23;45.87
70051;SHT30;57391;51.306;22.680;2023-08-06T11:36:31;31.23;46.07
70051;SHT30;57391;51.306;22.680;2023-08-06T11:39:00;31.21;46.03
70051;SHT30;57391;51.306;22.680;2023-08-06T11:41:29;31.24;46.61
70051;SHT30;57391;51.306;22.680;2023-08-06T11:43:57;31.17;46.37
70051;SHT30;57391;51.306;22.680;2023-08-06T11:46:25;31.07;46.50
70051;SHT30;57391;51.306;22.680;2023-08-06T11:48:56;31.01;45.99
70051;SHT30;57391;51.306;22.680;2023-08-06T11:51:26;30.98;46.30
70051;SHT30;57391;51.306;22.680;2023-08-06T11:53:59;31.02;46.52
70051;SHT30;57391;51.306;22.680;2023-08-06T11:56:26;31.13;46.93
70051;SHT30;57391;51.306;22.680;2023-08-06T11:58:54;31.23;46.78
70051;SHT30;57391;51.306;22.680;2023-08-06T12:01:22;31.19;46.67
70051;SHT30;57391;51.306;22.680;2023-08-06T12:03:48;31.10;47.28
70051;SHT30;57391;51.306;22.680;2023-08-06T12:06:15;30.98;47.43
70051;SHT30;57391;51.306;22.680;2023-08-06T12:08:42;30.82;47.14
70051;SHT30;57391;51.306;22.680;2023-08-06T12:11:09;30.63;47.34
70051;SHT30;57391;51.306;22.680;2023-08-06T12:13:36;30.47;47.73
70051;SHT30;57391;51.306;22.680;2023-08-06T12:16:04;30.36;48.49
70051;SHT30;57391;51.306;22.680;2023-08-06T12:18:31;30.27;49.24
70051;SHT30;57391;51.306;22.680;2023-08-06T12:20:58;30.18;49.70
70051;SHT30;57391;51.306;22.680;2023-08-06T12:23:25;30.04;49.90
70051;SHT30;57391;51.306;22.680;2023-08-06T12:25:51;29.95;50.49
70051;SHT30;57391;51.306;22.680;2023-08-06T12:28:18;29.89;50.88
70051;SHT30;57391;51.306;22.680;2023-08-06T12:30:45;29.84;50.86
70051;SHT30;57391;51.306;22.680;2023-08-06T12:33:13;29.78;50.95
70051;SHT30;57391;51.306;22.680;2023-08-06T12:35:40;29.72;51.45
70051;SHT30;57391;51.306;22.680;2023-08-06T12:38:07;29.67;51.94
70051;SHT30;57391;51.306;22.680;2023-08-06T12:40:34;29.61;51.57
70051;SHT30;57391;51.306;22.680;2023-08-06T12:43:00;29.55;51.40
70051;SHT30;57391;51.306;22.680;2023-08-06T12:45:27;29.49;52.06
70051;SHT30;57391;51.306;22.680;2023-08-06T12:47:54;29.42;52.22
70051;SHT30;57391;51.306;22.680;2023-08-06T12:50:21;29.35;52.37
70051;SHT30;57391;51.306;22.680;2023-08-06T12:52:48;29.26;52.26
70051;SHT30;57391;51.306;22.680;2023-08-06T12:55:15;29.16;52.53
70051;SHT30;57391;51.306;22.680;2023-08-06T12:57:41;29.08;52.87
70051;SHT30;57391;51.306;22.680;2023-08-06T13:00:08;29.01;53.00
70051;SHT30;57391;51.306;22.680;2023-08-06T13:02:36;28.96;53.39
70051;SHT30;57391;51.306;22.680;2023-08-06T13:05:03;28.90;53.64
70051;SHT30;57391;51.306;22.680;2023-08-06T13:07:32;28.85;53.91
70051;SHT30;57391;51.306;22.680;2023-08-06T13:09:59;28.75;53.78
70051;SHT30;57391;51.306;22.680;2023-08-06T13:12:26;28.53;54.24
70051;SHT30;57391;51.306;22.680;2023-08-06T13:14:52;28.27;54.87
70051;SHT30;57391;51.306;22.680;2023-08-06T13:17:21;27.98;55.51
70051;SHT30;57391;51.306;22.680;2023-08-06T13:19:48;27.70;56.73
70051;SHT30;57391;51.306;22.680;2023-08-06T13:22:15;27.44;57.76
70051;SHT30;57391;51.306;22.680;2023-08-06T13:24:42;27.20;58.78
70051;SHT30;57391;51.306;22.680;2023-08-06T13:27:09;26.98;59.81
70051;SHT30;57391;51.306;22.680;2023-08-06T13:29:36;26.79;60.74
70051;SHT30;57391;51.306;22.680;2023-08-06T13:32:03;26.62;61.77
70051;SHT30;57391;51.306;22.680;2023-08-06T13:34:30;26.42;62.94
70051;SHT30;57391;51.306;22.680;2023-08-06T13:36:56;26.18;63.91
70051;SHT30;57391;51.306;22.680;2023-08-06T13:39:23;25.97;64.67
70051;SHT30;57391;51.306;22.680;2023-08-06T13:41:50;25.79;65.58
70051;SHT30;57391;51.306;22.680;2023-08-06T13:44:17;25.63;66.85
70051;SHT30;57391;51.306;22.680;2023-08-06T13:46:44;25.48;67.43
70051;SHT30;57391;51.306;22.680;2023-08-06T13:49:11;25.41;68.00
70051;SHT30;57391;51.306;22.680;2023-08-06T13:51:38;25.35;68.36
70051;SHT30;57391;51.306;22.680;2023-08-06T13:54:05;25.40;69.12
70051;SHT30;57391;51.306;22.680;2023-08-06T13:56:32;25.43;69.86
70051;SHT30;57391;51.306;22.680;2023-08-06T13:59:00;25.44;69.98
70051;SHT30;57391;51.306;22.680;2023-08-06T14:01:27;25.48;70.41
70051;SHT30;57391;51.306;22.680;2023-08-06T14:03:54;25.61;71.01
70051;SHT30;57391;51.306;22.680;2023-08-06T14:06:21;25.75;70.33
70051;SHT30;57391;51.306;22.680;2023-08-06T14:08:48;25.80;69.98
70051;SHT30;57391;51.306;22.680;2023-08-06T14:11:14;25.86;69.78
70051;SHT30;57391;51.306;22.680;2023-08-06T14:13:41;25.89;69.51
70051;SHT30;57391;51.306;22.680;2023-08-06T14:16:08;25.92;69.47
70051;SHT30;57391;51.306;22.680;2023-08-06T14:18:35;25.96;69.11
70051;SHT30;57391;51.306;22.680;2023-08-06T14:21:04;25.99;68.14
70051;SHT30;57391;51.306;22.680;2023-08-06T14:23:31;26.02;67.95
70051;SHT30;57391;51.306;22.680;2023-08-06T14:25:58;26.07;67.93
70051;SHT30;57391;51.306;22.680;2023-08-06T14:28:25;26.10;67.20
70051;SHT30;57391;51.306;22.680;2023-08-06T14:30:52;26.11;67.19
70051;SHT30;57391;51.306;22.680;2023-08-06T14:33:19;26.14;67.23
70051;SHT30;57391;51.306;22.680;2023-08-06T14:35:46;26.19;67.40
70051;SHT30;57391;51.306;22.680;2023-08-06T14:38:13;26.25;67.28
70051;SHT30;57391;51.306;22.680;2023-08-06T14:40:40;26.29;66.73
70051;SHT30;57391;51.306;22.680;2023-08-06T14:43:07;26.31;66.39
70051;SHT30;57391;51.306;22.680;2023-08-06T14:45:37;26.34;65.96
70051;SHT30;57391;51.306;22.680;2023-08-06T14:48:06;26.37;65.68
70051;SHT30;57391;51.306;22.680;2023-08-06T14:50:33;26.40;65.80
70051;SHT30;57391;51.306;22.680;2023-08-06T14:53:01;26.42;65.67
70051;SHT30;57391;51.306;22.680;2023-08-06T14:55:29;26.43;65.53
70051;SHT30;57391;51.306;22.680;2023-08-06T14:57:56;26.46;65.85
70051;SHT30;57391;51.306;22.680;2023-08-06T15:00:23;26.48;65.67
70051;SHT30;57391;51.306;22.680;2023-08-06T15:02:50;26.49;65.54
70051;SHT30;57391;51.306;22.680;2023-08-06T15:05:17;26.48;65.51
70051;SHT30;57391;51.306;22.680;2023-08-06T15:07:44;26.48;65.07
70051;SHT30;57391;51.306;22.680;2023-08-06T15:10:11;26.46;64.81
70051;SHT30;57391;51.306;22.680;2023-08-06T15:12:38;26.45;64.63
70051;SHT30;57391;51.306;22.680;2023-08-06T15:15:06;26.42;64.72
70051;SHT30;57391;51.306;22.680;2023-08-06T15:17:34;26.39;64.55
70051;SHT30;57391;51.306;22.680;2023-08-06T15:20:01;26.35;64.91
70051;SHT30;57391;51.306;22.680;2023-08-06T15:22:29;26.32;65.18
70051;SHT30;57391;51.306;22.680;2023-08-06T15:24:59;26.29;65.31
70051;SHT30;57391;51.306;22.680;2023-08-06T15:27:28;26.26;65.78
70051;SHT30;57391;51.306;22.680;2023-08-06T15:29:55;26.25;66.00
70051;SHT30;57391;51.306;22.680;2023-08-06T15:32:22;26.23;66.47
70051;SHT30;57391;51.306;22.680;2023-08-06T15:34:50;26.23;66.71
70051;SHT30;57391;51.306;22.680;2023-08-06T15:37:18;26.21;66.87
70051;SHT30;57391;51.306;22.680;2023-08-06T15:39:45;26.20;66.98
70051;SHT30;57391;51.306;22.680;2023-08-06T15:42:15;26.17;67.15
70051;SHT30;57391;51.306;22.680;2023-08-06T15:44:42;26.14;67.35
70051;SHT30;57391;51.306;22.680;2023-08-06T15:47:10;26.12;67.48